Terminal Aerodrome Forecast
Issued by NWS

Home | Current Version | Previous Version | Text Only | Print | Product List | Glossary On
Versions: 1 2 3 4 5 6 7 8 9 10 11 12 13 14 15 16 17 18 19 20 21 22 23 24 25 26 27 28 29 30 31 32 33 34 35 36
000
FTAK31 PANC 211153
TAFACD
TAF
PACD 211153Z 2112/2212 31017G27KT P6SM FEW020 SCT030 BKN035
     FM211500 31015G25KT P6SM VCSH SCT020 OVC030
     FM220500 30010KT P6SM SCT025 OVC040=

USA.gov is the U.S. government's official web portal to all federal, state and local government web resources and services.